createdAt,value
2022-10-17T00:17:55.807Z,3.01
2022-10-17T00:37:55.863Z,3.01
2022-10-17T00:57:55.720Z,3.009
2022-10-17T01:17:55.688Z,3.009
2022-10-17T01:37:55.634Z,3.009
2022-10-17T01:58:02.655Z,3.01
2022-10-17T02:17:55.551Z,3.009
2022-10-17T02:37:55.534Z,3.01
2022-10-17T02:57:55.464Z,3.009
2022-10-17T03:17:55.408Z,3.009
2022-10-17T03:37:55.377Z,3.009
2022-10-17T03:57:55.356Z,3.009
2022-10-17T04:37:55.270Z,3.009
2022-10-17T04:57:55.258Z,3.009
2022-10-17T05:17:55.158Z,3.009
2022-10-17T05:38:09.127Z,3.009
2022-10-17T05:58:02.096Z,3.009
2022-10-17T06:17:55.061Z,3.009
2022-10-17T06:38:01.993Z,3.009
2022-10-17T06:57:54.969Z,3.009
2022-10-17T07:17:54.938Z,3.009
2022-10-17T07:37:54.859Z,3.009
2022-10-17T07:57:54.838Z,3.005
2022-10-17T08:17:54.777Z,3.007
2022-10-17T08:37:54.699Z,3.007
2022-10-17T09:17:54.602Z,3.009
2022-10-17T09:37:54.559Z,3.009
2022-10-17T09:58:01.534Z,3.009
2022-10-17T10:18:08.508Z,3.012
2022-10-17T10:37:54.395Z,3.01
2022-10-17T10:58:01.373Z,3.009
2022-10-17T11:18:01.319Z,3.012
2022-10-17T11:38:01.273Z,3.012
2022-10-17T11:57:54.235Z,3.012
2022-10-17T12:17:54.157Z,3.012
2022-10-17T12:37:57.259Z,3.012
2022-10-17T12:57:54.062Z,3.014
2022-10-17T13:17:54.004Z,3.016
2022-10-17T13:57:53.972Z,3.014
2022-10-17T14:17:53.912Z,3.016
2022-10-17T14:37:53.807Z,3.016
2022-10-17T14:57:53.787Z,3.016
2022-10-17T15:18:00.723Z,3.019
2022-10-17T15:38:00.655Z,3.016
2022-10-17T15:57:53.644Z,3.016
2022-10-17T16:18:08.676Z,3.019
2022-10-17T16:38:00.507Z,3.019
2022-10-17T16:57:53.444Z,3.016
2022-10-17T17:18:04.244Z,3.018
2022-10-17T17:37:53.363Z,3.019
2022-10-17T17:57:53.305Z,3.019
2022-10-17T18:17:53.262Z,3.019
2022-10-17T18:37:53.268Z,3.019
2022-10-17T18:57:53.190Z,3.016
2022-10-17T19:18:00.133Z,3.019
2022-10-17T19:38:00.097Z,3.019
2022-10-17T19:57:53.049Z,3.019
2022-10-17T20:17:52.993Z,3.016
2022-10-17T20:37:52.954Z,3.018
2022-10-17T20:57:52.921Z,3.016
2022-10-17T21:17:52.895Z,3.016
2022-10-17T21:37:52.821Z,3.016
2022-10-17T21:57:52.777Z,3.016
2022-10-17T22:37:52.660Z,3.016
2022-10-17T22:57:52.636Z,3.016
2022-10-17T23:37:52.555Z,3.016
2022-10-17T23:57:52.491Z,3.019
